METAR Data
IDs: Format: Raw Decoded Include TAF

Data at: 2147 UTC 08 Aug 2020

NZAA 082130Z AUTO 02002KT 9999 FEW035/// BKN050/// 11/10 Q1014 NOSIG
NZAA 082100Z AUTO 06003KT 9999 VCSH FEW033/// SCT060/// 09/08 Q1013 NOSIG
NZAA 082030Z AUTO 34003KT 9999 FEW055/// 09/08 Q1013 NOSIG
NZAA 082000Z AUTO 02003KT 7000 -SHRA FEW030/// SCT039/// 08/07 Q1013 BECMG 9999
NZAA 081930Z AUTO 03003KT 9999 VCSH SCT050/// 06/06 Q1013 NOSIG
NZAA 081900Z AUTO 02006KT 9999 VCSH SCT046/// 07/06 Q1013 TEMPO 7000 SHRA

TAF NZAA 081708Z 0818/0918 VRB02KT 9999 -SHRA SCT030
  TEMPO 0818/0821 7000 SHRA
  BECMG 0821/0823 23015KT
  BECMG 0908/0910 23005KT